Time;durP1;ratioP1;P1;durP2;ratioP2;P2;SDS_P1;SDS_P2;PMS_P1;PMS_P2;Temp;Humidity;BMP_temperature;BMP_pressure;BME280_temperature;BME280_humidity;BME280_pressure;Samples;Min_cycle;Max_cycle;Signal;HPM_P1;HPM_P2
2022/08/24 00:02:03;;;;;;;8.43;6.30;;;;;;;20.20;83.21;96694.25;5051848;28;20201;-86
2022/08/24 00:04:32;;;;;;;13.57;6.80;;;;;;;20.30;83.76;96703.00;5071281;28;20204;-88
2022/08/24 00:07:02;;;;;;;7.73;6.00;;;;;;;20.27;83.08;96705.91;5070750;28;20196;-90
2022/08/24 00:09:31;;;;;;;8.20;5.03;;;;;;;20.17;82.80;96697.97;5069951;28;20254;-90
2022/08/24 00:11:59;;;;;;;8.70;5.67;;;;;;;20.27;82.69;96685.72;5071136;28;20261;-87
2022/08/24 00:14:27;;;;;;;9.67;5.30;;;;;;;20.34;81.08;96693.84;5069939;28;20300;-85
2022/08/24 00:16:57;;;;;;;8.60;5.63;;;;;;;20.60;81.53;96694.97;5036528;28;20594;-85
2022/08/24 00:19:25;;;;;;;9.80;5.00;;;;;;;20.81;80.41;96697.44;5069408;28;20308;-86
2022/08/24 00:21:53;;;;;;;7.20;5.50;;;;;;;21.06;79.48;96681.06;5035673;28;20201;-83
2022/08/24 00:24:22;;;;;;;9.47;6.13;;;;;;;20.84;80.56;96697.16;5070347;28;20757;-80
2022/08/24 00:26:52;;;;;;;7.90;5.37;;;;;;;21.00;80.01;96692.94;5053972;28;20593;-86
2022/08/24 00:29:21;;;;;;;9.53;5.67;;;;;;;21.03;80.57;96697.16;5055265;28;20551;-87
2022/08/24 00:31:51;;;;;;;11.07;6.33;;;;;;;20.95;80.38;96666.22;5051353;28;20199;-89
2022/08/24 00:34:20;;;;;;;8.47;6.00;;;;;;;21.15;80.71;96692.53;5052907;28;20749;-88
2022/08/24 00:36:49;;;;;;;11.17;6.27;;;;;;;21.15;80.77;96689.88;5035474;28;20201;-88
2022/08/24 00:39:17;;;;;;;8.07;6.10;;;;;;;21.25;80.26;96702.06;5052172;28;20196;-86
2022/08/24 00:41:47;;;;;;;8.47;7.37;;;;;;;21.31;80.87;96716.47;5052278;28;20193;-86
2022/08/24 00:44:16;;;;;;;11.37;8.03;;;;;;;21.13;81.67;96726.06;5069268;28;20197;-84
2022/08/24 00:46:47;;;;;;;12.10;8.10;;;;;;;21.20;81.68;96741.19;5052409;28;20286;-83
2022/08/24 00:49:43;;;;;;;10.57;8.27;;;;;;;21.15;82.14;96759.22;5068887;28;20189;-85
2022/08/24 00:52:18;;;;;;;11.30;8.40;;;;;;;21.01;82.63;96767.50;5052182;28;20208;-81
2022/08/24 00:54:54;;;;;;;9.73;7.40;;;;;;;20.92;82.31;96777.09;5051995;28;20208;-87
2022/08/24 00:57:26;;;;;;;13.10;7.40;;;;;;;20.82;82.19;96784.16;5051066;28;20196;-87
2022/08/24 01:00:00;;;;;;;11.23;6.70;;;;;;;20.99;81.24;96796.63;5052299;28;20229;-84
2022/08/24 01:02:32;;;;;;;9.17;6.17;;;;;;;21.01;80.39;96794.69;5050634;28;20189;-88
2022/08/24 01:05:07;;;;;;;8.67;6.13;;;;;;;21.00;80.16;96802.69;5069847;28;20254;-84
2022/08/24 01:07:36;;;;;;;6.90;5.80;;;;;;;20.66;81.11;96810.22;5051727;28;20680;-87
2022/08/24 01:10:08;;;;;;;7.37;5.77;;;;;;;20.22;83.11;96810.66;5068758;28;20181;-84
2022/08/24 01:12:41;;;;;;;10.37;5.90;;;;;;;19.59;85.73;96766.28;5068691;28;20205;-87
2022/08/24 01:15:29;;;;;;;11.53;6.70;;;;;;;19.76;85.46;96803.31;5068450;28;20606;-89
2022/08/24 01:20:48;;;;;;;10.73;6.13;;;;;;;19.32;87.81;96793.94;5051998;28;20220;-87
2022/08/24 01:23:38;;;;;;;9.63;6.33;;;;;;;19.38;87.53;96803.94;5050880;28;20201;-87
2022/08/24 01:26:09;;;;;;;9.07;5.90;;;;;;;19.41;85.95;96798.41;5054612;28;20203;-87
2022/08/24 01:28:41;;;;;;;6.53;5.70;;;;;;;19.35;85.64;96798.94;5074064;28;20211;-82
2022/08/24 01:31:09;;;;;;;6.30;5.63;;;;;;;19.40;85.52;96795.94;5052870;28;20196;-82
2022/08/24 01:33:37;;;;;;;7.50;5.80;;;;;;;19.40;84.52;96783.63;5070927;28;20677;-86
2022/08/24 01:36:30;;;;;;;6.27;5.30;;;;;;;19.66;83.41;96793.72;5033646;28;20262;-83
2022/08/24 01:39:04;;;;;;;5.40;4.57;;;;;;;19.64;82.87;96785.13;5051403;28;20219;-81
2022/08/24 01:41:33;;;;;;;7.70;4.93;;;;;;;19.84;81.42;96795.59;5068026;28;20230;-83
2022/08/24 01:44:01;;;;;;;7.60;4.63;;;;;;;20.02;80.19;96785.25;5050869;28;20199;-79
2022/08/24 01:46:30;;;;;;;7.40;5.50;;;;;;;20.22;79.04;96787.00;5068873;28;20207;-78
2022/08/24 01:48:58;;;;;;;10.90;5.43;;;;;;;20.45;78.26;96769.19;5067658;28;20613;-79
2022/08/24 01:51:30;;;;;;;8.13;5.33;;;;;;;20.56;79.28;96783.06;5051366;28;20207;-79
2022/08/24 01:54:01;;;;;;;8.03;5.20;;;;;;;20.77;78.93;96767.13;5049453;28;20580;-81
2022/08/24 01:56:34;;;;;;;8.40;4.93;;;;;;;20.86;79.17;96782.06;5051199;28;20206;-80
2022/08/24 01:59:05;;;;;;;6.67;5.30;;;;;;;21.02;79.06;96772.66;5034204;28;20683;-80
2022/08/24 02:01:38;;;;;;;10.87;5.37;;;;;;;21.02;79.21;96780.56;5050497;28;20254;-79
2022/08/24 02:04:10;;;;;;;7.43;5.53;;;;;;;21.04;79.01;96778.63;5051793;28;20570;-79
2022/08/24 02:06:44;;;;;;;8.07;5.17;;;;;;;21.10;78.79;96779.03;5032675;28;20230;-80
2022/08/24 02:09:15;;;;;;;8.60;6.20;;;;;;;21.07;79.88;96777.53;5035311;28;20215;-81
2022/08/24 02:11:43;;;;;;;8.13;6.17;;;;;;;20.97;79.54;96772.25;5032824;28;20209;-77
2022/08/24 02:14:14;;;;;;;6.63;5.70;;;;;;;20.93;79.45;96784.03;5050470;28;20197;-78
2022/08/24 02:16:41;;;;;;;9.30;6.10;;;;;;;20.77;78.91;96775.84;5050350;28;20200;-77
2022/08/24 02:19:09;;;;;;;7.40;5.73;;;;;;;20.67;78.70;96790.78;5066887;28;20656;-78
2022/08/24 02:21:38;;;;;;;8.23;5.00;;;;;;;20.29;80.98;96785.50;5033907;28;20235;-80
2022/08/24 02:24:06;;;;;;;6.83;5.60;;;;;;;20.08;82.32;96793.44;5066628;28;20196;-83
2022/08/24 02:26:33;;;;;;;8.10;5.73;;;;;;;20.06;83.52;96799.81;5034145;28;20227;-82
2022/08/24 02:29:02;;;;;;;10.67;6.40;;;;;;;20.29;82.70;96806.53;5067433;28;20260;-79
2022/08/24 02:31:31;;;;;;;7.53;5.60;;;;;;;20.51;81.73;96801.03;5050293;28;20199;-80
2022/08/24 02:33:59;;;;;;;9.13;6.27;;;;;;;20.57;81.42;96795.22;5050291;28;20320;-79
2022/08/24 02:36:30;;;;;;;7.83;5.93;;;;;;;20.72;81.59;96801.75;5049109;28;20210;-80
2022/08/24 02:38:58;;;;;;;9.13;5.90;;;;;;;20.91;80.94;96809.66;5050510;28;20286;-80
2022/08/24 02:41:27;;;;;;;9.67;6.10;;;;;;;20.39;82.91;96810.03;5048078;28;20247;-84
2022/08/24 02:43:55;;;;;;;8.90;4.90;;;;;;;20.52;80.44;96804.50;5050154;28;20211;-86
2022/08/24 02:46:26;;;;;;;6.90;5.87;;;;;;;20.64;82.12;96803.41;5033382;28;20219;-83
2022/08/24 02:48:58;;;;;;;10.23;6.20;;;;;;;20.70;82.19;96794.97;5067249;28;20229;-80
2022/08/24 02:51:44;;;;;;;11.37;6.23;;;;;;;20.76;80.84;96805.78;5033643;28;20295;-85
2022/08/24 02:54:18;;;;;;;9.40;6.40;;;;;;;21.01;79.86;96799.13;5048600;28;20587;-82
2022/08/24 02:56:48;;;;;;;8.07;6.00;;;;;;;20.98;79.37;96794.94;5068420;28;20283;-79
2022/08/24 02:59:16;;;;;;;8.23;5.30;;;;;;;21.08;78.62;96790.53;5049109;28;20217;-84
2022/08/24 03:01:47;;;;;;;9.17;5.60;;;;;;;21.08;78.75;96792.38;5049600;28;20243;-84
2022/08/24 03:04:19;;;;;;;8.20;5.90;;;;;;;21.13;78.06;96773.47;5034419;28;20288;-84
2022/08/24 03:06:49;;;;;;;11.80;5.80;;;;;;;21.06;79.27;96776.69;5049456;28;20193;-79
2022/08/24 03:09:19;;;;;;;11.17;6.37;;;;;;;21.08;78.82;96774.72;5049899;28;20203;-85
2022/08/24 03:11:50;;;;;;;9.43;6.10;;;;;;;21.17;78.72;96777.50;5048629;28;20235;-85
2022/08/24 03:14:20;;;;;;;10.93;6.10;;;;;;;21.16;78.37;96768.78;5033577;28;20200;-89
2022/08/24 03:16:48;;;;;;;8.97;5.97;;;;;;;21.24;78.00;96774.16;5049264;28;20637;-85
2022/08/24 03:19:16;;;;;;;9.20;6.13;;;;;;;21.34;77.70;96766.22;5049160;28;20212;-86
2022/08/24 03:21:45;;;;;;;8.17;6.23;;;;;;;21.23;77.96;96748.78;5050398;28;20225;-86
2022/08/24 03:24:13;;;;;;;11.90;6.60;;;;;;;21.34;77.67;96760.97;5048477;28;20220;-84
2022/08/24 03:26:40;;;;;;;10.00;7.10;;;;;;;21.38;77.35;96759.69;5052892;28;20201;-85
2022/08/24 03:29:14;;;;;;;11.80;7.37;;;;;;;21.41;77.19;96762.06;5033279;28;20201;-87
2022/08/24 03:31:46;;;;;;;8.40;6.43;;;;;;;21.34;76.59;96763.59;5068266;28;20193;-85
2022/08/24 03:34:14;;;;;;;9.37;7.77;;;;;;;21.41;76.73;96759.44;5046812;28;20312;-83
2022/08/24 03:36:45;;;;;;;9.03;6.93;;;;;;;21.55;76.16;96754.53;5032681;28;20197;-80
2022/08/24 03:39:15;;;;;;;10.23;7.47;;;;;;;21.52;76.13;96772.41;5050238;28;20201;-84
2022/08/24 03:41:47;;;;;;;8.87;6.97;;;;;;;21.47;76.25;96764.13;5032809;28;20317;-79
2022/08/24 03:44:17;;;;;;;8.47;7.33;;;;;;;21.33;77.24;96769.84;5050485;28;20200;-79
2022/08/24 03:46:49;;;;;;;10.10;6.70;;;;;;;21.17;77.66;96754.63;5033529;28;20280;-83
2022/08/24 03:49:17;;;;;;;10.13;7.53;;;;;;;21.32;77.13;96765.53;5051031;28;20194;-80
2022/08/24 03:51:45;;;;;;;10.80;6.73;;;;;;;21.08;78.28;96766.84;5050281;28;20605;-82
2022/08/24 03:54:13;;;;;;;9.33;6.77;;;;;;;21.17;78.34;96761.69;5048815;28;20277;-80
2022/08/24 03:56:41;;;;;;;7.83;6.00;;;;;;;21.31;77.69;96766.53;5050177;28;20331;-80
2022/08/24 03:59:09;;;;;;;10.77;7.53;;;;;;;21.53;77.48;96753.00;5048540;28;20249;-77
2022/08/24 04:01:39;;;;;;;9.17;6.67;;;;;;;21.67;76.51;96760.44;5049803;28;20236;-79
2022/08/24 04:04:11;;;;;;;9.10;6.83;;;;;;;21.61;76.02;96746.03;5050009;28;20204;-84
2022/08/24 04:06:43;;;;;;;10.97;7.53;;;;;;;21.88;76.04;96760.25;5050304;28;20665;-82
2022/08/24 04:09:11;;;;;;;8.70;6.90;;;;;;;22.14;74.88;96751.50;5059809;28;20223;-78
2022/08/24 04:11:42;;;;;;;10.23;5.87;;;;;;;22.35;72.73;96761.78;5071133;28;20206;-76
2022/08/24 04:14:11;;;;;;;8.30;7.13;;;;;;;22.57;71.13;96767.44;5055507;28;20347;-83
2022/08/24 04:17:11;;;;;;;7.77;5.57;;;;;;;22.71;71.30;96742.34;5068807;28;20206;-81
2022/08/24 04:19:56;;;;;;;6.30;5.40;;;;;;;22.96;70.27;96772.44;5068855;28;20277;-80
2022/08/24 04:22:32;;;;;;;15.50;6.03;;;;;;;23.20;69.42;96767.34;5069384;28;20231;-80
2022/08/24 04:25:03;;;;;;;11.27;5.83;;;;;;;23.27;70.17;96769.22;5050928;28;20201;-82
2022/08/24 04:27:39;;;;;;;10.60;6.97;;;;;;;23.34;69.48;96778.22;5071954;28;20196;-84
2022/08/24 04:30:12;;;;;;;16.50;7.50;;;;;;;23.02;71.18;96777.13;5052453;28;20228;-87
2022/08/24 04:32:58;;;;;;;14.30;7.70;;;;;;;22.89;72.12;96787.25;5051383;28;20591;-82
2022/08/24 04:35:25;;;;;;;14.27;7.90;;;;;;;23.21;71.90;96774.28;5051324;28;20193;-82
2022/08/24 04:37:53;;;;;;;10.93;6.47;;;;;;;23.46;70.84;96778.78;5047450;28;20196;-78
2022/08/24 04:40:21;;;;;;;12.97;7.70;;;;;;;23.53;70.37;96763.13;5033106;28;20202;-81
2022/08/24 04:42:51;;;;;;;9.83;7.30;;;;;;;23.26;71.26;96790.50;5048300;28;20217;-83
2022/08/24 04:45:19;;;;;;;10.60;7.40;;;;;;;23.25;71.04;96788.84;5049053;28;20281;-83
2022/08/24 04:47:48;;;;;;;13.50;8.07;;;;;;;23.51;70.19;96789.75;5032634;28;20714;-83
2022/08/24 04:50:18;;;;;;;16.70;8.20;;;;;;;23.87;70.34;96785.97;5047329;28;20892;-84
2022/08/24 04:52:51;;;;;;;12.87;7.77;;;;;;;23.07;72.82;96794.16;5049265;28;20897;-81
2022/08/24 04:55:18;;;;;;;9.63;7.40;;;;;;;23.32;70.79;96779.34;5047546;28;20277;-84
2022/08/24 04:57:52;;;;;;;10.83;6.60;;;;;;;23.73;70.00;96777.78;5016245;28;20233;-84
2022/08/24 05:00:27;;;;;;;11.27;7.13;;;;;;;23.84;69.97;96790.75;5048097;28;20197;-83
2022/08/24 05:02:55;;;;;;;9.67;7.20;;;;;;;23.88;69.89;96790.28;5031725;28;20199;-82
2022/08/24 05:05:22;;;;;;;9.47;7.10;;;;;;;23.63;70.77;96803.50;5048762;28;20223;-84
2022/08/24 05:07:51;;;;;;;9.80;7.67;;;;;;;23.44;72.70;96793.97;5047429;28;20189;-84
2022/08/24 05:10:25;;;;;;;14.00;8.60;;;;;;;23.29;72.62;96798.97;5064595;28;20205;-84
2022/08/24 05:13:01;;;;;;;14.17;8.63;;;;;;;23.41;73.09;96802.22;5047533;28;20722;-82
2022/08/24 05:15:32;;;;;;;11.67;8.70;;;;;;;23.41;73.58;96794.31;5048297;28;20671;-84
2022/08/24 05:18:03;;;;;;;16.67;7.80;;;;;;;23.81;72.31;96799.81;5048367;28;20197;-85
2022/08/24 05:20:32;;;;;;;17.50;8.10;;;;;;;23.86;71.06;96788.78;5030439;28;20623;-78
2022/08/24 05:23:02;;;;;;;13.33;7.23;;;;;;;23.92;71.11;96780.19;5032114;28;20208;-82
2022/08/24 05:25:36;;;;;;;13.63;6.83;;;;;;;24.11;70.63;96814.38;5047407;28;20232;-86
2022/08/24 05:28:06;;;;;;;16.17;7.37;;;;;;;23.65;72.05;96812.13;5050082;28;20631;-79
2022/08/24 05:30:36;;;;;;;15.97;7.10;;;;;;;23.81;71.89;96801.63;5047998;28;20207;-81
2022/08/24 05:33:08;;;;;;;18.47;9.07;;;;;;;23.96;71.94;96806.19;5050980;28;20193;-81
2022/08/24 05:35:38;;;;;;;13.93;8.07;;;;;;;24.20;71.31;96797.53;5072255;28;20604;-83
2022/08/24 05:38:12;;;;;;;14.47;7.40;;;;;;;24.33;70.63;96797.94;5072257;28;20238;-83
2022/08/24 05:40:44;;;;;;;18.20;7.33;;;;;;;24.51;70.04;96787.19;5057372;28;20191;-84
2022/08/24 05:43:13;;;;;;;11.00;7.00;;;;;;;24.44;70.02;96789.66;5089418;28;20199;-85
2022/08/24 05:45:45;;;;;;;16.20;8.17;;;;;;;24.38;70.04;96786.84;5072833;28;20281;-80
2022/08/24 05:48:17;;;;;;;14.77;8.87;;;;;;;24.29;69.98;96783.34;5022641;28;20223;-83
2022/08/24 05:51:12;;;;;;;18.43;7.87;;;;;;;24.75;68.39;96782.00;5073464;28;20231;-82
2022/08/24 05:53:57;;;;;;;11.43;6.40;;;;;;;25.08;65.26;96783.66;5057190;28;20221;-85
2022/08/24 05:56:35;;;;;;;20.57;6.70;;;;;;;25.33;64.37;96789.78;5054053;28;20197;-84
2022/08/24 05:59:08;;;;;;;8.37;4.87;;;;;;;25.42;62.74;96783.50;5088558;28;20206;-79
2022/08/24 06:01:37;;;;;;;15.90;5.80;;;;;;;25.60;61.25;96787.63;5071398;28;20303;-81
2022/08/24 06:04:11;;;;;;;9.53;4.70;;;;;;;25.76;61.15;96784.13;5069919;28;20201;-82
2022/08/24 06:06:41;;;;;;;9.60;4.33;;;;;;;26.06;60.71;96798.44;5054992;28;20214;-83
2022/08/24 06:09:11;;;;;;;14.73;7.23;;;;;;;26.36;61.17;96781.72;5070878;28;20584;-83
2022/08/24 06:11:44;;;;;;;27.20;9.07;;;;;;;26.39;62.69;96797.34;5055704;28;20287;-82
2022/08/24 06:14:17;;;;;;;11.67;7.97;;;;;;;26.57;61.73;96801.38;5055431;28;20204;-84
2022/08/24 06:16:57;;;;;;;16.50;7.23;;;;;;;26.85;61.01;96803.56;5070465;28;20228;-82
2022/08/24 06:19:26;;;;;;;26.93;7.63;;;;;;;26.89;61.01;96808.38;5054404;28;20203;-81
2022/08/24 06:21:58;;;;;;;16.33;7.10;;;;;;;26.88;60.96;96798.72;5053809;28;20686;-82
2022/08/24 06:27:20;;;;;;;11.97;7.50;;;;;;;26.42;63.78;96807.63;5043270;28;20212;-83
2022/08/24 06:30:00;;;;;;;17.47;7.33;;;;;;;26.06;65.72;96806.41;5071798;28;20188;-82
2022/08/24 06:32:51;;;;;;;14.90;7.37;;;;;;;25.43;68.27;96809.06;5078490;28;20215;-82
2022/08/24 06:35:47;;;;;;;13.80;7.10;;;;;;;25.56;68.61;96809.34;5035677;28;20299;-84
2022/08/24 06:38:16;;;;;;;10.90;7.93;;;;;;;25.67;67.74;96820.44;5033897;28;20197;-81
2022/08/24 06:40:47;;;;;;;19.20;10.00;;;;;;;26.09;65.96;96814.06;5018906;28;20203;-83
2022/08/24 06:43:25;;;;;;;17.73;10.47;;;;;;;26.00;66.52;96821.19;5059178;28;20232;-81
2022/08/24 06:45:57;;;;;;;24.93;12.83;;;;;;;26.40;64.29;96813.09;5046718;28;20291;-83
2022/08/24 06:48:34;;;;;;;20.73;12.33;;;;;;;26.65;62.27;96797.03;5063527;28;20273;-84
2022/08/24 06:51:09;;;;;;;21.47;11.37;;;;;;;27.16;60.89;96807.81;5046880;28;20206;-82
2022/08/24 06:53:42;;;;;;;20.77;11.00;;;;;;;27.46;58.70;96807.94;5065514;28;20223;-83
2022/08/24 06:56:12;;;;;;;28.23;13.43;;;;;;;27.58;59.31;96807.31;5062478;28;20265;-85
2022/08/24 06:58:44;;;;;;;19.73;11.87;;;;;;;27.13;60.04;96810.00;5045869;28;20277;-81
2022/08/24 07:01:25;;;;;;;28.67;12.33;;;;;;;27.31;58.56;96792.72;5059710;28;20216;-83
2022/08/24 07:04:09;;;;;;;26.23;14.33;;;;;;;27.49;58.05;96797.78;5044471;28;20494;-82
2022/08/24 07:07:04;;;;;;;23.37;10.63;;;;;;;27.85;56.86;96825.34;5061304;28;20205;-83
2022/08/24 07:09:34;;;;;;;27.40;11.40;;;;;;;27.94;56.97;96821.59;5053829;28;20265;-84
2022/08/24 07:12:09;;;;;;;28.00;9.53;;;;;;;28.25;56.19;96824.09;5055161;28;20205;-83
2022/08/24 07:14:38;;;;;;;18.93;6.53;;;;;;;28.23;55.17;96828.78;5035591;28;20202;-84
2022/08/24 07:17:11;;;;;;;16.70;7.50;;;;;;;28.20;54.75;96823.81;5045706;28;20312;-85
2022/08/24 07:19:44;;;;;;;16.00;6.13;;;;;;;28.19;54.88;96827.50;5046162;28;20586;-82
2022/08/24 07:22:25;;;;;;;14.47;6.73;;;;;;;28.25;54.28;96829.44;5044675;28;20242;-84
2022/08/24 07:25:05;;;;;;;14.47;5.53;;;;;;;28.48;52.63;96837.31;4999737;28;20205;-83
2022/08/24 07:27:41;;;;;;;22.27;9.40;;;;;;;28.46;53.25;96834.81;5048882;28;20190;-83
2022/08/24 07:30:20;;;;;;;22.30;9.07;;;;;;;28.72;53.34;96835.19;5045218;28;20213;-79
2022/08/24 07:32:57;;;;;;;12.77;5.03;;;;;;;28.61;51.88;96838.31;5047085;28;20205;-82
2022/08/24 07:35:41;;;;;;;17.07;6.60;;;;;;;28.60;51.72;96834.00;5061210;28;20646;-81
2022/08/24 07:38:12;;;;;;;16.43;7.23;;;;;;;28.37;52.74;96841.28;5028054;28;20274;-83
2022/08/24 07:40:49;;;;;;;16.03;10.43;;;;;;;28.15;52.99;96828.88;5046050;28;20293;-82
2022/08/24 07:43:37;;;;;;;20.73;7.50;;;;;;;27.79;54.41;96827.91;5045024;28;20222;-82
2022/08/24 07:46:09;;;;;;;19.47;8.80;;;;;;;27.79;54.04;96834.06;5046951;28;20288;-83
2022/08/24 07:48:38;;;;;;;13.70;5.47;;;;;;;27.94;53.65;96842.06;5045305;28;20823;-83
2022/08/24 07:51:18;;;;;;;18.13;5.40;;;;;;;28.12;53.59;96831.91;5046200;28;20190;-81
2022/08/24 07:53:49;;;;;;;18.73;6.23;;;;;;;27.54;54.69;96819.34;5030970;28;20189;-84
2022/08/24 07:56:30;;;;;;;16.27;5.60;;;;;;;27.51;54.46;96832.19;5060857;28;20269;-81
2022/08/24 07:59:04;;;;;;;20.03;4.93;;;;;;;27.20;55.37;96829.56;5061296;28;20266;-80
2022/08/24 08:02:22;;;;;;;15.40;5.13;;;;;;;27.06;55.76;96830.34;5045713;28;20229;-81
2022/08/24 08:05:04;;;;;;;13.40;4.27;;;;;;;26.75;56.02;96832.22;5045627;28;20281;-81
2022/08/24 08:07:32;;;;;;;15.70;4.50;;;;;;;26.82;56.08;96828.66;5046364;28;20628;-81
2022/08/24 08:10:02;;;;;;;16.53;3.70;;;;;;;26.82;55.98;96833.16;5044554;28;20313;-83
2022/08/24 08:12:34;;;;;;;14.77;4.20;;;;;;;26.69;57.79;96835.53;5013782;28;20260;-80
2022/08/24 08:15:09;;;;;;;17.13;4.33;;;;;;;26.48;57.36;96844.13;5029936;28;20292;-81
2022/08/24 08:17:55;;;;;;;16.67;4.00;;;;;;;26.68;56.63;96840.03;5044518;28;20271;-80
2022/08/24 08:20:24;;;;;;;11.63;3.60;;;;;;;26.68;57.06;96840.03;5030796;28;20285;-79
2022/08/24 08:26:00;;;;;;;15.90;4.27;;;;;;;27.20;55.24;96826.91;5049509;28;20668;-81
2022/08/24 08:28:57;;;;;;;14.33;4.17;;;;;;;27.51;54.09;96832.19;5053312;28;20248;-79
2022/08/24 08:31:36;;;;;;;14.60;3.97;;;;;;;27.04;55.20;96830.50;5048069;28;20229;-79
2022/08/24 08:34:07;;;;;;;11.07;4.30;;;;;;;27.31;54.98;96794.56;5052806;28;20891;-79
2022/08/24 08:36:39;;;;;;;12.63;5.77;;;;;;;27.46;54.06;96823.91;5052106;28;20590;-79
2022/08/24 08:39:16;;;;;;;20.77;6.77;;;;;;;27.35;54.51;96796.72;5069646;28;20204;-78
2022/08/24 08:42:33;;;;;;;16.37;4.20;;;;;;;27.78;53.89;96818.28;5039083;28;20224;-82
2022/08/24 08:45:45;;;;;;;16.97;4.63;;;;;;;27.69;53.61;96814.88;5026759;28;20560;-80
2022/08/24 08:49:00;;;;;;;13.97;4.20;;;;;;;27.36;55.00;96808.19;5052128;28;20646;-80
2022/08/24 08:52:00;;;;;;;17.37;4.27;;;;;;;27.49;54.52;96802.25;5068370;28;20307;-79
2022/08/24 08:54:59;;;;;;;19.53;4.93;;;;;;;27.45;54.46;96796.44;5070253;28;20285;-81
2022/08/24 08:57:51;;;;;;;14.47;4.53;;;;;;;27.61;53.90;96801.66;5053443;28;20288;-80
2022/08/24 09:00:23;;;;;;;16.03;4.47;;;;;;;27.36;53.24;96770.94;5052873;28;20621;-81
2022/08/24 09:02:59;;;;;;;18.63;4.93;;;;;;;27.77;54.18;96797.97;5070409;28;20224;-79
2022/08/24 09:05:48;;;;;;;20.00;5.40;;;;;;;28.00;53.26;96801.44;5067625;28;20219;-80
2022/08/24 09:08:34;;;;;;;23.57;6.53;;;;;;;28.26;52.70;96795.59;5069109;28;20255;-82
2022/08/24 09:11:36;;;;;;;19.20;4.20;;;;;;;28.22;51.21;96808.47;5068326;28;20284;-81
2022/08/24 09:14:41;;;;;;;12.53;3.87;;;;;;;27.86;51.25;96826.19;5067891;28;20204;-80
2022/08/24 09:17:30;;;;;;;19.27;4.13;;;;;;;27.94;52.21;96818.09;5069422;28;20679;-80
2022/08/24 09:20:22;;;;;;;17.57;4.23;;;;;;;27.94;51.71;96812.78;5050800;28;20205;-80
2022/08/24 09:23:08;;;;;;;16.57;4.83;;;;;;;27.20;51.98;96660.19;5068509;28;20225;-80
2022/08/24 09:26:14;;;;;;;14.33;4.97;;;;;;;28.23;53.47;96804.81;5075562;28;20262;-78
2022/08/24 09:29:02;;;;;;;22.67;4.93;;;;;;;28.50;52.09;96816.63;5069322;28;20205;-81
2022/08/24 09:31:52;;;;;;;14.53;4.33;;;;;;;28.33;51.58;96816.00;5068363;28;20292;-81
2022/08/24 09:34:55;;;;;;;17.40;4.20;;;;;;;28.46;52.25;96824.16;5081835;28;20228;-80
2022/08/24 09:37:41;;;;;;;17.80;4.17;;;;;;;28.35;51.72;96827.31;5089432;28;20287;-79
2022/08/24 09:40:29;;;;;;;16.77;4.33;;;;;;;28.25;52.27;96812.63;5089003;28;20209;-80
2022/08/24 09:43:04;;;;;;;20.30;4.90;;;;;;;28.37;51.27;96819.13;5071796;28;20247;-81
2022/08/24 09:45:47;;;;;;;25.70;5.63;;;;;;;28.25;52.16;96831.25;5088209;28;20691;-80
2022/08/24 09:48:26;;;;;;;20.23;4.97;;;;;;;28.27;50.69;96814.09;5089175;28;20211;-78
2022/08/24 09:50:54;;;;;;;20.30;5.03;;;;;;;28.16;51.41;96817.22;5070879;28;20237;-80
2022/08/24 09:54:02;;;;;;;19.33;4.67;;;;;;;28.30;50.39;96813.69;5088143;28;20200;-80
2022/08/24 09:57:00;;;;;;;16.57;4.53;;;;;;;29.02;48.69;96795.09;5070716;28;20559;-82
2022/08/24 09:59:50;;;;;;;19.77;4.70;;;;;;;28.49;50.91;96797.16;5090016;28;20632;-80
2022/08/24 10:02:55;;;;;;;18.63;6.60;;;;;;;28.10;51.72;96792.16;5088533;28;20242;-80
2022/08/24 10:05:41;;;;;;;18.83;4.73;;;;;;;27.89;52.69;96788.53;5071860;28;20201;-80
2022/08/24 10:08:20;;;;;;;23.73;5.37;;;;;;;27.87;53.16;96779.91;5089607;28;20708;-80
2022/08/24 10:11:06;;;;;;;17.20;5.53;;;;;;;27.93;51.40;96761.34;5088442;28;20682;-80
2022/08/24 10:13:54;;;;;;;21.43;5.20;;;;;;;27.98;51.75;96766.16;5071524;28;20203;-79
2022/08/24 10:16:59;;;;;;;20.53;4.67;;;;;;;28.06;52.72;96740.28;5087921;28;20283;-79
2022/08/24 10:19:51;;;;;;;18.40;4.67;;;;;;;27.98;53.23;96752.84;5072973;28;20195;-79
2022/08/24 10:22:36;;;;;;;26.93;6.03;;;;;;;27.60;53.79;96744.09;5089357;28;20227;-80
2022/08/24 10:25:41;;;;;;;22.20;6.77;;;;;;;27.84;53.26;96751.81;5070056;28;20203;-79
2022/08/24 10:28:42;;;;;;;30.90;8.47;;;;;;;27.96;52.83;96757.53;5070572;28;20873;-80
2022/08/24 10:31:19;;;;;;;21.90;5.00;;;;;;;27.27;53.64;96772.81;5089458;28;20212;-79
2022/08/24 10:33:55;;;;;;;21.50;5.43;;;;;;;27.22;53.83;96759.22;5083868;28;20730;-80
2022/08/24 10:36:36;;;;;;;22.83;5.57;;;;;;;27.18;54.36;96731.34;5088336;28;20184;-83
2022/08/24 10:43:33;;;;;;;24.13;5.70;;;;;;;27.65;54.14;96743.56;5070128;28;20754;-80
2022/08/24 10:46:19;;;;;;;21.57;6.17;;;;;;;27.57;53.70;96738.31;5068897;28;20204;-86
2022/08/24 10:49:32;;;;;;;30.80;7.73;;;;;;;27.58;53.32;96756.75;5088479;28;20208;-78
2022/08/24 10:52:23;;;;;;;26.47;5.30;;;;;;;27.91;53.04;96765.22;5072764;28;20284;-80
2022/08/24 10:54:54;;;;;;;28.83;6.47;;;;;;;27.81;53.48;96749.53;5068210;28;20281;-78
2022/08/24 10:57:27;;;;;;;25.80;6.00;;;;;;;27.74;52.08;96761.09;5070497;28;20603;-79
2022/08/24 11:00:14;;;;;;;25.13;6.00;;;;;;;27.81;51.30;96762.84;5087530;28;20224;-79
2022/08/24 11:03:14;;;;;;;24.73;7.90;;;;;;;28.18;50.34;96748.59;5087227;28;20228;-78
2022/08/24 11:05:55;;;;;;;22.77;6.43;;;;;;;28.62;49.36;96770.69;5085077;28;21043;-79
2022/08/24 11:08:32;;;;;;;24.93;5.87;;;;;;;28.92;48.87;96764.22;5068684;28;20695;-79
2022/08/24 11:11:12;;;;;;;27.67;8.93;;;;;;;28.93;49.60;96765.06;5070845;28;20582;-79
2022/08/24 11:13:59;;;;;;;25.67;5.93;;;;;;;28.59;51.41;96768.38;5070035;28;20209;-78
2022/08/24 11:16:32;;;;;;;24.13;5.67;;;;;;;28.31;51.29;96762.09;5068439;28;20234;-79
2022/08/24 11:19:03;;;;;;;17.13;5.90;;;;;;;28.37;51.51;96756.00;5069878;28;20678;-79
2022/08/24 11:21:49;;;;;;;19.73;6.20;;;;;;;27.98;51.51;96768.84;5069030;28;20250;-80
2022/08/24 11:24:16;;;;;;;19.43;6.00;;;;;;;27.97;52.81;96765.34;5086552;28;20220;-80
2022/08/24 11:27:06;;;;;;;20.37;5.60;;;;;;;28.14;52.63;96771.28;5070351;28;20554;-78
2022/08/24 11:29:54;;;;;;;14.40;5.13;;;;;;;28.17;51.91;96781.59;5084196;28;20196;-79
2022/08/24 11:32:26;;;;;;;24.73;5.43;;;;;;;28.33;51.83;96773.38;5069614;28;20207;-79
2022/08/24 11:34:59;;;;;;;29.27;6.87;;;;;;;28.19;51.63;96771.56;5070148;28;20823;-79
2022/08/24 11:37:34;;;;;;;20.37;5.60;;;;;;;28.21;50.35;96768.72;5052554;28;20261;-78
2022/08/24 11:40:06;;;;;;;22.13;6.27;;;;;;;28.24;50.80;96771.81;5088258;28;20197;-78
2022/08/24 11:42:59;;;;;;;19.70;6.40;;;;;;;28.04;50.95;96762.75;5067716;28;20757;-78
2022/08/24 11:46:17;;;;;;;18.23;5.63;;;;;;;27.97;51.75;96770.66;5088584;28;20671;-83
2022/08/24 11:49:06;;;;;;;25.60;7.30;;;;;;;27.52;54.36;96776.13;5086836;28;20200;-78
2022/08/24 11:51:51;;;;;;;23.73;6.43;;;;;;;27.57;54.58;96783.56;5086765;28;20196;-78
2022/08/24 11:54:36;;;;;;;17.30;6.00;;;;;;;27.39;54.51;96792.69;5051768;28;20261;-78
2022/08/24 11:57:17;;;;;;;20.70;5.40;;;;;;;26.81;55.93;96792.44;5092242;28;20220;-78
2022/08/24 11:59:52;;;;;;;28.17;6.87;;;;;;;26.66;56.66;96799.50;5039333;28;20207;-79
2022/08/24 12:03:01;;;;;;;14.63;5.27;;;;;;;26.78;57.27;96805.28;5058651;28;20192;-80
2022/08/24 12:05:53;;;;;;;21.10;7.00;;;;;;;27.38;55.76;96808.84;4990301;28;20209;-79
2022/08/24 12:08:44;;;;;;;16.83;5.50;;;;;;;27.49;53.28;96807.59;5072107;28;20197;-79
2022/08/24 12:11:31;;;;;;;20.13;5.33;;;;;;;27.51;53.64;96811.72;5091665;28;20212;-80
2022/08/24 12:14:23;;;;;;;16.80;6.03;;;;;;;27.45;54.21;96812.41;5057179;28;20573;-79
2022/08/24 12:17:17;;;;;;;19.97;6.57;;;;;;;27.72;54.17;96824.34;5019333;28;20209;-79
2022/08/24 12:20:01;;;;;;;24.07;5.80;;;;;;;27.75;52.78;96839.94;5073589;28;20697;-78
2022/08/24 12:22:35;;;;;;;18.73;5.53;;;;;;;27.62;54.24;96823.75;5074352;28;20193;-79
2022/08/24 12:26:00;;;;;;;28.93;6.73;;;;;;;28.01;52.59;96833.19;5072901;28;20195;-79
2022/08/24 12:27:57;;;;;;;12.97;5.40;;;;;;;27.84;52.77;96823.69;5092024;28;20313;-79